Time;durP1;ratioP1;P1;durP2;ratioP2;P2;SDS_P1;SDS_P2;PMS_P1;PMS_P2;Temp;Humidity;BMP_temperature;BMP_pressure;BME280_temperature;BME280_humidity;BME280_pressure;Samples;Min_cycle;Max_cycle;Signal;HPM_P1;HPM_P2
2022/05/10 13:15:20;;;;;;;6.23;2.40;;;;;;;29.64;19.62;95227.34;4947860;28;20693;-70
2022/05/10 13:17:51;;;;;;;7.70;2.97;;;;;;;30.40;19.73;95215.84;4954020;29;20266;-67
2022/05/10 13:20:22;;;;;;;5.63;2.57;;;;;;;30.00;20.11;95223.91;4953110;29;20286;-65
2022/05/10 13:23:00;;;;;;;11.80;3.00;;;;;;;29.42;21.39;95239.03;4947203;29;20618;-67
2022/05/10 13:25:29;;;;;;;11.70;2.77;;;;;;;28.77;22.21;95233.88;4952039;29;20613;-66
2022/05/10 13:28:25;;;;;;;17.77;3.13;;;;;;;29.64;21.72;95232.75;4953474;28;20658;-67
2022/05/10 13:30:58;;;;;;;15.27;3.00;;;;;;;29.57;21.85;95238.06;4932870;29;20238;-67
2022/05/10 13:33:31;;;;;;;10.60;2.60;;;;;;;28.06;23.19;95228.41;4953155;29;20224;-69
2022/05/10 13:36:07;;;;;;;15.03;3.10;;;;;;;28.43;23.52;95237.50;4953018;29;20204;-61
2022/05/10 13:38:44;;;;;;;15.20;3.13;;;;;;;28.68;23.05;95230.66;4953186;29;20203;-61
2022/05/10 13:41:13;;;;;;;22.63;3.83;;;;;;;27.91;23.33;95232.72;4954549;29;20596;-66
2022/05/10 13:43:47;;;;;;;11.67;3.40;;;;;;;27.25;24.31;95229.44;4953305;29;20207;-66
2022/05/10 13:46:23;;;;;;;5.93;2.97;;;;;;;27.92;23.65;95225.41;4952690;29;20195;-67
2022/05/10 13:48:56;;;;;;;5.33;2.17;;;;;;;27.23;24.00;95236.28;4952921;29;20270;-67
2022/05/10 13:51:39;;;;;;;10.57;2.83;;;;;;;27.39;23.98;95234.38;4952362;29;20231;-64
2022/05/10 13:54:19;;;;;;;11.00;3.10;;;;;;;27.56;24.00;95213.19;4952559;29;20278;-66
2022/05/10 13:56:46;;;;;;;11.03;2.67;;;;;;;27.78;23.76;95225.13;4952658;29;20204;-65
2022/05/10 13:59:13;;;;;;;9.00;2.40;;;;;;;26.79;25.39;95239.16;4948072;29;20255;-62
2022/05/10 14:01:49;;;;;;;6.17;2.50;;;;;;;27.21;24.98;95233.19;4940594;29;20211;-66
2022/05/10 14:04:18;;;;;;;5.83;2.70;;;;;;;26.72;24.34;95228.25;4932074;29;20208;-62
2022/05/10 14:07:04;;;;;;;7.20;2.67;;;;;;;27.09;24.40;95238.66;4936926;29;20215;-68
2022/05/10 14:09:39;;;;;;;2.97;2.50;;;;;;;27.55;23.82;95237.78;4936244;29;20232;-66
2022/05/10 14:12:23;;;;;;;2.83;2.50;;;;;;;26.95;24.34;95225.72;4933459;29;20199;-66
2022/05/10 14:14:52;;;;;;;3.13;2.60;;;;;;;27.22;23.97;95232.84;4932936;29;20250;-66
2022/05/10 14:17:19;;;;;;;14.50;3.37;;;;;;;27.09;24.71;95236.78;4933788;29;20270;-68
2022/05/10 14:19:49;;;;;;;5.03;2.77;;;;;;;27.10;24.49;95229.50;4933296;29;20291;-67
2022/05/10 14:22:25;;;;;;;6.37;2.80;;;;;;;27.12;24.75;95237.97;4933364;29;20222;-67
2022/05/10 14:24:53;;;;;;;4.43;2.30;;;;;;;26.22;24.90;95214.72;4933118;29;20215;-70
2022/05/10 14:27:26;;;;;;;10.80;3.57;;;;;;;27.50;24.57;95235.38;4933357;29;20263;-68
2022/05/10 14:29:55;;;;;;;;;;;;;;;26.86;26.45;95228.56;4933034;29;20284;-65
2022/05/10 14:32:22;;;;;;;7.95;2.33;;;;;;;27.04;26.98;95240.50;4932457;29;20491;-69
2022/05/10 14:34:55;;;;;;;13.33;2.60;;;;;;;26.91;27.72;95220.25;4933093;29;20204;-66
2022/05/10 14:37:33;;;;;;;34.50;3.10;;;;;;;28.11;26.39;95232.69;4934918;29;20216;-65
2022/05/10 14:40:31;;;;;;;9.10;2.57;;;;;;;27.87;26.79;95242.63;4944056;29;20219;-65
2022/05/10 14:43:04;;;;;;;5.93;2.03;;;;;;;27.60;26.96;95238.28;4952074;29;20562;-69
2022/05/10 14:45:39;;;;;;;6.47;2.40;;;;;;;26.90;27.62;95250.94;4951534;29;20717;-68
2022/05/10 14:48:28;;;;;;;8.07;2.50;;;;;;;26.37;28.11;95254.25;4952063;29;20211;-70
2022/05/10 14:51:28;;;;;;;11.47;2.83;;;;;;;26.40;28.11;95248.19;4951801;29;20329;-65
2022/05/10 14:53:55;;;;;;;13.87;2.47;;;;;;;26.10;28.57;95259.66;4951943;29;20212;-69
2022/05/10 14:56:29;;;;;;;10.57;3.03;;;;;;;26.40;28.22;95256.25;4951811;29;20353;-68
2022/05/10 14:59:10;;;;;;;8.73;2.37;;;;;;;25.92;28.38;95261.84;4952298;29;20247;-67
2022/05/10 15:01:38;;;;;;;13.30;2.33;;;;;;;25.57;28.10;95258.19;4951455;29;20212;-64
2022/05/10 15:04:13;;;;;;;8.90;2.23;;;;;;;25.97;27.65;95250.88;4949963;29;20206;-69
2022/05/10 15:06:44;;;;;;;9.57;2.30;;;;;;;25.15;28.83;95257.72;4955628;29;20208;-63
2022/05/10 15:09:18;;;;;;;5.47;2.37;;;;;;;26.18;27.38;95243.41;4951759;29;20239;-67
2022/05/10 15:14:31;;;;;;;8.80;2.20;;;;;;;24.99;28.86;95260.31;4951648;29;20231;-66
2022/05/10 15:16:59;;;;;;;10.53;2.50;;;;;;;25.25;28.74;95245.75;4951011;29;20192;-66
2022/05/10 15:19:26;;;;;;;6.73;2.43;;;;;;;26.04;27.67;95240.34;4947654;29;20236;-63
2022/05/10 15:21:53;;;;;;;9.03;2.50;;;;;;;25.89;27.66;95233.78;4934761;29;20208;-65
2022/05/10 15:24:19;;;;;;;7.47;2.90;;;;;;;25.97;27.86;95242.81;4932269;29;20616;-65
2022/05/10 15:26:49;;;;;;;7.13;2.30;;;;;;;25.19;28.17;95241.72;4932898;29;20201;-67
2022/05/10 15:29:25;;;;;;;3.23;2.13;;;;;;;26.00;27.51;95239.44;4932448;29;20204;-66
2022/05/10 15:31:52;;;;;;;11.13;2.50;;;;;;;26.01;27.79;95238.31;4950586;29;20195;-66
2022/05/10 15:37:05;;;;;;;4.23;2.63;;;;;;;25.82;28.00;95248.94;4952384;29;20192;-64
2022/05/10 15:39:32;;;;;;;58.03;46.43;;;;;;;26.28;28.29;95250.16;4953674;29;20207;-64
2022/05/10 15:41:59;;;;;;;88.70;51.93;;;;;;;26.60;27.01;95241.78;4951157;29;20207;-73
2022/05/10 15:44:25;;;;;;;16.37;8.93;;;;;;;26.63;26.97;95246.44;4951952;29;20192;-70
2022/05/10 15:46:52;;;;;;;11.10;3.23;;;;;;;27.02;26.40;95233.94;4951644;29;20230;-69
2022/05/10 15:49:19;;;;;;;7.13;2.50;;;;;;;26.20;26.75;95237.69;4951139;29;20195;-65
2022/05/10 15:51:46;;;;;;;5.80;3.00;;;;;;;26.67;26.76;95231.19;4950731;29;20231;-67
2022/05/10 15:54:14;;;;;;;15.07;3.33;;;;;;;26.03;26.69;95249.50;4951766;29;20196;-67
2022/05/10 15:56:50;;;;;;;4.80;2.60;;;;;;;26.06;26.41;95248.81;4931202;29;20667;-67
2022/05/10 15:59:17;;;;;;;10.30;3.73;;;;;;;26.23;26.14;95248.50;4931605;29;20583;-64
2022/05/10 16:01:46;;;;;;;8.50;3.73;;;;;;;26.31;26.13;95244.09;4931852;29;20200;-64
2022/05/10 16:04:16;;;;;;;3.87;2.20;;;;;;;25.93;26.38;95253.47;4931236;29;20208;-64
2022/05/10 16:06:43;;;;;;;6.07;2.67;;;;;;;26.24;26.49;95242.00;4938574;29;20192;-66
2022/05/10 16:09:13;;;;;;;5.37;2.60;;;;;;;26.40;26.16;95242.81;4928322;29;20694;-65
2022/05/10 16:11:40;;;;;;;4.93;2.40;;;;;;;26.19;25.82;95231.53;4941796;29;20221;-68
2022/05/10 16:14:08;;;;;;;8.87;3.33;;;;;;;26.26;25.92;95239.00;4942097;29;20245;-69
2022/05/10 16:16:36;;;;;;;7.23;3.50;;;;;;;26.45;26.23;95228.31;4944186;29;20250;-67
2022/05/10 16:19:03;;;;;;;9.10;3.67;;;;;;;26.30;26.38;95235.25;4937577;29;20200;-66
2022/05/10 16:21:39;;;;;;;6.53;3.77;;;;;;;25.11;26.72;95245.34;4935793;29;20677;-63
2022/05/10 16:24:07;;;;;;;12.10;8.83;;;;;;;25.97;26.50;95240.13;4943024;29;20205;-70
2022/05/10 16:32:08;;;;;;;160.43;144.13;;;;;;;26.46;26.71;95238.72;4932274;29;20206;-67
2022/05/10 16:34:36;;;;;;;285.30;257.77;;;;;;;26.58;26.53;95238.66;4940673;29;20252;-73
2022/05/10 16:37:05;;;;;;;15.20;8.87;;;;;;;26.50;26.47;95236.91;4940251;29;20200;-67
2022/05/10 16:39:33;;;;;;;6.53;3.93;;;;;;;26.65;26.65;95238.03;4932213;29;20200;-72
2022/05/10 16:42:00;;;;;;;202.43;174.60;;;;;;;26.61;26.75;95237.16;4935814;28;20236;-64
2022/05/10 16:44:27;;;;;;;119.63;107.50;;;;;;;26.72;26.78;95241.69;4946822;28;20192;-68
2022/05/10 16:46:58;;;;;;;36.70;24.40;;;;;;;26.44;27.16;95240.97;4936127;29;20214;-65
2022/05/10 16:49:26;;;;;;;16.63;7.80;;;;;;;26.58;27.26;95245.94;4942004;29;20201;-63
2022/05/10 16:51:53;;;;;;;11.07;4.73;;;;;;;26.51;27.46;95246.53;4939523;29;20235;-68
2022/05/10 16:54:23;;;;;;;7.93;4.07;;;;;;;26.64;27.25;95248.00;4944825;29;20235;-66
2022/05/10 16:56:51;;;;;;;17.17;4.20;;;;;;;26.64;27.61;95248.00;4943997;29;20203;-69
2022/05/10 16:59:19;;;;;;;9.27;3.87;;;;;;;26.57;27.86;95247.81;4942127;29;20207;-65
2022/05/10 17:01:46;;;;;;;15.60;6.13;;;;;;;26.44;29.11;95262.47;4937456;29;20204;-63
2022/05/10 17:04:13;;;;;;;12.40;5.80;;;;;;;26.36;29.29;95263.44;4937780;29;20211;-68
2022/05/10 17:06:41;;;;;;;9.30;4.53;;;;;;;25.79;30.06;95276.47;4933811;29;20192;-68
2022/05/10 17:09:09;;;;;;;10.43;5.60;;;;;;;25.90;29.61;95267.56;4934461;29;20200;-66
2022/05/10 17:11:37;;;;;;;11.60;5.33;;;;;;;25.93;29.70;95276.84;4933692;29;20695;-65
2022/05/10 17:14:07;;;;;;;10.43;5.60;;;;;;;25.82;29.81;95273.09;4934645;29;20241;-66
2022/05/10 17:16:35;;;;;;;11.47;4.77;;;;;;;25.32;28.95;95280.81;4934296;29;20204;-61
2022/05/10 17:19:03;;;;;;;12.53;5.20;;;;;;;25.23;29.13;95272.13;4934370;29;20236;-65
2022/05/10 17:21:30;;;;;;;10.27;4.77;;;;;;;25.63;29.38;95281.78;4934343;29;20664;-67
2022/05/10 17:24:00;;;;;;;12.17;5.27;;;;;;;25.21;29.43;95288.56;4935676;29;20205;-73
2022/05/10 17:26:27;;;;;;;7.37;4.10;;;;;;;24.75;29.33;95292.50;4934284;29;20290;-69
2022/05/10 17:28:58;;;;;;;9.00;3.90;;;;;;;24.95;29.46;95288.91;4948813;29;20235;-68
2022/05/10 17:31:35;;;;;;;9.50;3.47;;;;;;;25.22;29.82;95292.03;4953506;29;21105;-66
2022/05/10 17:34:03;;;;;;;6.03;3.13;;;;;;;24.93;29.88;95303.78;4953826;29;20207;-63
2022/05/10 17:36:34;;;;;;;11.20;3.57;;;;;;;25.21;29.65;95298.50;4937336;29;20196;-69
2022/05/10 17:39:01;;;;;;;13.90;4.40;;;;;;;25.24;29.12;95308.53;4923129;29;20208;-68
2022/05/10 17:41:31;;;;;;;13.97;9.60;;;;;;;24.68;29.62;95312.91;4935705;29;20303;-63
2022/05/10 17:43:58;;;;;;;28.73;20.90;;;;;;;24.82;30.05;95314.16;4952184;29;20210;-67
2022/05/10 17:46:25;;;;;;;6.30;3.43;;;;;;;24.36;31.30;95319.88;4952471;29;20242;-67
2022/05/10 17:48:52;;;;;;;15.27;3.87;;;;;;;24.67;31.85;95317.47;4952948;29;20671;-66
2022/05/10 17:51:26;;;;;;;7.50;3.33;;;;;;;24.70;31.82;95306.13;4952837;29;20282;-64
2022/05/10 17:53:56;;;;;;;3.87;2.90;;;;;;;24.31;32.28;95313.94;4953416;29;20203;-68
2022/05/10 17:56:25;;;;;;;5.40;3.00;;;;;;;23.92;32.77;95317.94;4951986;28;20271;-67
2022/05/10 17:58:53;;;;;;;10.27;3.30;;;;;;;23.75;33.36;95318.06;4953205;29;20625;-66
2022/05/10 18:01:23;;;;;;;10.77;3.53;;;;;;;23.64;33.96;95317.69;4952020;29;20578;-64
2022/05/10 18:03:52;;;;;;;5.93;2.90;;;;;;;23.69;33.50;95308.66;4952087;29;20586;-65
2022/05/10 18:06:19;;;;;;;13.93;12.13;;;;;;;22.85;34.76;95311.56;4952122;29;20291;-67
2022/05/10 18:08:47;;;;;;;17.47;13.73;;;;;;;23.09;34.40;95314.44;4952645;29;20675;-63
2022/05/10 18:11:18;;;;;;;7.93;2.90;;;;;;;23.17;34.63;95319.72;4949329;29;20310;-65
2022/05/10 18:13:46;;;;;;;4.57;3.30;;;;;;;22.95;35.06;95313.88;4952613;29;20210;-63
2022/05/10 18:16:15;;;;;;;8.73;3.43;;;;;;;23.54;34.45;95317.31;4938580;29;20208;-64
2022/05/10 18:18:42;;;;;;;5.67;3.40;;;;;;;23.65;34.02;95318.50;4951565;29;20216;-66
2022/05/10 18:21:10;;;;;;;7.37;3.70;;;;;;;23.70;33.79;95321.72;4951067;29;20200;-65
2022/05/10 18:23:40;;;;;;;9.43;3.80;;;;;;;23.43;34.49;95322.25;4951780;29;20255;-62
2022/05/10 18:26:08;;;;;;;9.90;3.87;;;;;;;23.04;35.29;95315.41;4951748;29;20216;-64
2022/05/10 18:28:36;;;;;;;6.17;3.60;;;;;;;22.62;36.63;95319.06;4944438;29;20204;-65
2022/05/10 18:31:03;;;;;;;9.63;5.63;;;;;;;22.60;36.62;95321.28;4951557;29;20236;-66
2022/05/10 18:33:32;;;;;;;7.03;4.47;;;;;;;22.71;36.86;95322.47;4951786;29;20498;-61
2022/05/10 18:36:00;;;;;;;6.20;4.20;;;;;;;22.88;36.62;95311.69;4951718;29;20231;-66
2022/05/10 18:38:28;;;;;;;8.40;4.20;;;;;;;22.57;37.78;95315.78;4952397;29;21276;-65
2022/05/10 18:40:57;;;;;;;6.63;4.33;;;;;;;22.26;38.22;95316.03;4951863;29;20444;-65
2022/05/10 18:43:24;;;;;;;7.53;4.13;;;;;;;22.27;38.58;95320.25;4945249;29;20451;-67
2022/05/10 18:45:51;;;;;;;10.43;4.30;;;;;;;22.71;37.89;95311.00;4948516;29;20440;-66
2022/05/10 18:48:18;;;;;;;6.10;4.00;;;;;;;23.24;37.43;95319.22;4946088;29;20445;-65
2022/05/10 18:50:45;;;;;;;9.60;4.80;;;;;;;23.40;37.74;95292.69;4947840;29;20913;-63
2022/05/10 18:53:13;;;;;;;9.03;5.23;;;;;;;23.29;39.44;95315.56;4945984;29;20439;-62
2022/05/10 18:55:42;;;;;;;8.90;5.07;;;;;;;23.10;38.13;95313.34;4950936;29;20436;-65
2022/05/10 18:58:10;;;;;;;8.90;4.10;;;;;;;22.75;38.77;95323.41;4954654;29;20461;-64
2022/05/10 19:00:38;;;;;;;5.83;4.00;;;;;;;22.86;38.26;95313.91;4952035;29;20677;-62
2022/05/10 19:03:06;;;;;;;8.23;3.93;;;;;;;22.84;38.49;95316.16;4951700;29;20444;-66
2022/05/10 19:05:35;;;;;;;10.10;4.30;;;;;;;22.84;38.69;95328.72;4950823;29;20498;-66
2022/05/10 19:08:05;;;;;;;6.50;3.93;;;;;;;23.05;36.97;95316.97;4952494;28;20275;-65
2022/05/10 19:10:33;;;;;;;7.30;3.97;;;;;;;23.00;37.64;95314.47;4952210;29;20443;-65
2022/05/10 19:13:00;;;;;;;35.10;27.97;;;;;;;22.81;38.63;95326.69;4947500;29;20319;-68
2022/05/10 19:15:28;;;;;;;286.63;241.93;;;;;;;23.27;38.27;95331.13;4951293;28;20507;-65
2022/05/10 19:17:56;;;;;;;41.57;37.17;;;;;;;23.30;39.89;95334.00;4951784;29;20942;-61
2022/05/10 19:20:23;;;;;;;9.43;5.63;;;;;;;23.67;39.38;95332.28;4951072;29;20459;-71
2022/05/10 19:22:51;;;;;;;9.37;5.93;;;;;;;23.50;40.61;95343.16;4952786;29;20212;-67
2022/05/10 19:25:21;;;;;;;10.13;5.20;;;;;;;23.46;41.71;95344.91;4950815;29;20588;-65
2022/05/10 19:27:50;;;;;;;9.10;6.20;;;;;;;23.30;42.77;95354.59;4955542;29;20200;-61
2022/05/10 19:30:22;;;;;;;8.57;6.67;;;;;;;23.12;42.64;95357.34;4954925;29;20645;-65
2022/05/10 19:32:49;;;;;;;9.30;6.97;;;;;;;23.40;42.23;95359.56;4954099;29;20235;-67
2022/05/10 19:35:16;;;;;;;10.10;6.60;;;;;;;23.33;41.59;95367.31;4955599;29;20231;-67
2022/05/10 19:37:43;;;;;;;10.10;7.37;;;;;;;23.30;41.26;95362.63;4956319;29;20204;-65
2022/05/10 19:40:11;;;;;;;9.80;6.80;;;;;;;23.30;41.42;95360.75;4951436;29;20192;-63
2022/05/10 19:42:38;;;;;;;9.13;6.73;;;;;;;23.36;41.03;95355.97;4957021;29;20276;-62
2022/05/10 19:45:07;;;;;;;10.33;6.53;;;;;;;23.40;41.21;95363.03;4954959;29;20963;-64
2022/05/10 19:47:43;;;;;;;12.03;8.47;;;;;;;23.63;39.77;95363.50;4955749;29;20192;-65
2022/05/10 19:50:12;;;;;;;10.90;6.37;;;;;;;23.51;40.49;95360.75;4951247;29;20446;-66
2022/05/10 19:52:40;;;;;;;87.33;77.53;;;;;;;23.62;39.47;95372.63;4952529;29;20607;-64
2022/05/10 19:55:13;;;;;;;32.33;27.50;;;;;;;23.53;38.73;95363.88;4950419;29;21358;-67
2022/05/10 19:57:40;;;;;;;13.20;7.50;;;;;;;22.82;39.22;95377.13;4938320;29;20441;-63
2022/05/10 20:00:10;;;;;;;12.20;8.13;;;;;;;22.95;39.12;95372.69;4932040;29;20188;-66
2022/05/10 20:05:31;;;;;;;9.13;5.90;;;;;;;23.29;39.28;95355.66;4931766;29;20583;-63
2022/05/10 20:08:02;;;;;;;8.20;5.63;;;;;;;23.30;38.63;95367.97;4931380;29;20208;-66
2022/05/10 20:10:31;;;;;;;8.50;6.33;;;;;;;22.66;41.15;95375.31;4930698;29;20484;-63
2022/05/10 20:13:06;;;;;;;9.67;6.80;;;;;;;22.03;43.44;95373.34;4931048;29;20496;-63
2022/05/10 20:15:35;;;;;;;8.90;6.17;;;;;;;22.22;42.52;95373.81;4931064;29;20339;-64
2022/05/10 20:18:04;;;;;;;7.33;5.80;;;;;;;22.14;42.19;95371.94;4931319;29;20450;-61
2022/05/10 20:20:33;;;;;;;8.13;5.83;;;;;;;22.10;41.71;95368.31;4934493;29;20853;-63
2022/05/10 20:23:00;;;;;;;11.43;6.13;;;;;;;22.51;41.00;95373.91;4934870;29;20444;-65
2022/05/10 20:25:29;;;;;;;10.93;5.73;;;;;;;22.60;41.24;95380.03;4933872;29;20447;-62
2022/05/10 20:27:56;;;;;;;9.67;6.67;;;;;;;22.60;41.86;95380.03;4934275;29;20470;-60
2022/05/10 20:30:23;;;;;;;8.20;6.20;;;;;;;22.89;42.09;95371.28;4935216;29;20450;-63
2022/05/10 20:32:51;;;;;;;12.70;6.90;;;;;;;22.82;41.82;95363.78;4935527;29;20592;-65
2022/05/10 20:35:19;;;;;;;10.27;5.93;;;;;;;22.79;40.79;95372.41;4934805;29;20448;-63
2022/05/10 20:37:46;;;;;;;9.37;6.33;;;;;;;22.88;40.31;95359.03;4935219;29;20978;-61
2022/05/10 20:40:17;;;;;;;9.27;6.77;;;;;;;22.94;40.27;95365.75;4934977;29;20450;-64
2022/05/10 20:42:46;;;;;;;14.17;9.73;;;;;;;22.92;40.05;95363.41;4935804;29;20197;-67
2022/05/10 20:45:21;;;;;;;9.07;7.17;;;;;;;22.57;40.71;95367.31;4936388;29;20472;-64
2022/05/10 20:47:49;;;;;;;16.13;7.27;;;;;;;22.71;41.39;95370.56;4935880;29;20200;-65
2022/05/10 20:50:16;;;;;;;12.13;6.33;;;;;;;22.66;40.68;95362.72;4934891;29;20205;-66
2022/05/10 20:52:44;;;;;;;11.40;7.50;;;;;;;22.66;41.29;95362.72;4935423;29;20484;-65
2022/05/10 20:55:13;;;;;;;12.23;7.60;;;;;;;22.45;41.80;95369.81;4934332;29;20539;-64
2022/05/10 20:57:40;;;;;;;11.07;7.47;;;;;;;22.50;41.92;95352.88;4935257;29;20516;-64
2022/05/10 21:00:08;;;;;;;14.43;6.70;;;;;;;22.64;41.83;95354.25;4946899;29;20648;-65
2022/05/10 21:02:37;;;;;;;11.73;7.00;;;;;;;22.73;42.00;95363.03;4934536;29;20444;-65
2022/05/10 21:05:05;;;;;;;10.77;7.33;;;;;;;22.57;42.46;95364.63;4934420;29;20456;-63
2022/05/10 21:10:19;;;;;;;13.80;7.43;;;;;;;22.54;43.16;95381.28;4934919;29;20456;-65
2022/05/10 21:12:46;;;;;;;9.90;7.40;;;;;;;22.27;44.04;95368.31;4928739;29;20497;-65
2022/05/10 21:15:32;;;;;;;13.57;8.77;;;;;;;20.99;47.49;95374.28;4927344;29;20470;-66
2022/05/10 21:18:18;;;;;;;10.40;8.03;;;;;;;20.95;46.86;95367.97;4935276;29;20509;-65
2022/05/10 21:21:03;;;;;;;12.07;8.57;;;;;;;21.67;45.06;95364.84;4934565;29;20492;-65
2022/05/10 21:23:48;;;;;;;13.57;8.27;;;;;;;21.74;45.35;95373.97;4934655;29;20439;-67
2022/05/10 21:27:16;;;;;;;15.07;8.00;;;;;;;21.61;45.52;95382.09;4933053;29;20451;-66
2022/05/10 21:32:09;;;;;;;15.60;7.60;;;;;;;21.84;45.22;95383.56;4931605;29;20484;-64
2022/05/10 21:34:36;;;;;;;11.97;7.37;;;;;;;21.85;45.39;95385.91;4926746;29;20498;-63
2022/05/10 21:37:04;;;;;;;11.47;8.23;;;;;;;21.87;45.10;95383.72;4932071;29;20847;-64
2022/05/10 21:39:31;;;;;;;10.30;7.23;;;;;;;21.89;45.15;95386.88;4925963;29;20452;-65
2022/05/10 21:41:58;;;;;;;9.77;7.60;;;;;;;21.62;45.60;95389.03;4932638;29;20204;-66
2022/05/10 21:44:24;;;;;;;11.07;7.63;;;;;;;21.52;46.45;95397.31;4934347;29;20444;-65
2022/05/10 21:46:51;;;;;;;14.63;7.90;;;;;;;21.56;46.46;95392.94;4934305;29;20496;-65
2022/05/10 21:49:19;;;;;;;15.43;8.40;;;;;;;21.66;46.14;95392.63;4936190;29;20445;-62
2022/05/10 21:51:46;;;;;;;10.47;8.57;;;;;;;21.63;46.17;95398.56;4933736;29;20472;-63
2022/05/10 21:54:12;;;;;;;14.10;8.80;;;;;;;21.87;45.81;95399.75;4934466;29;20526;-62
2022/05/10 21:56:39;;;;;;;12.60;8.93;;;;;;;21.89;45.35;95397.53;4933597;29;20452;-63
2022/05/10 21:59:06;;;;;;;16.03;9.53;;;;;;;21.85;45.49;95401.94;4934396;29;20818;-61
2022/05/10 22:01:33;;;;;;;14.70;9.93;;;;;;;21.71;45.19;95398.59;4933698;29;20512;-64
2022/05/10 22:04:00;;;;;;;11.40;8.57;;;;;;;21.65;44.76;95399.06;4934225;29;20455;-65
2022/05/10 22:06:26;;;;;;;14.43;8.87;;;;;;;21.42;43.84;95374.41;4937008;29;20965;-60
2022/05/10 22:08:53;;;;;;;11.03;8.07;;;;;;;21.15;43.05;95404.75;4942142;29;20448;-60
2022/05/10 22:11:20;;;;;;;11.60;8.10;;;;;;;21.39;43.06;95408.88;4941360;29;20855;-63
2022/05/10 22:13:47;;;;;;;13.27;7.97;;;;;;;21.48;43.18;95407.00;4937989;29;20433;-63
2022/05/10 22:16:14;;;;;;;13.40;8.13;;;;;;;21.40;42.72;95410.47;4936348;29;20448;-62
2022/05/10 22:18:41;;;;;;;13.57;8.20;;;;;;;21.49;42.41;95411.28;4935156;29;20685;-63
2022/05/10 22:21:08;;;;;;;9.93;7.23;;;;;;;21.47;41.87;95405.47;4933434;29;20519;-62
2022/05/10 22:23:36;;;;;;;8.50;7.43;;;;;;;21.39;41.89;95414.22;4933409;29;21172;-65
2022/05/10 22:26:04;;;;;;;10.47;7.10;;;;;;;20.85;42.10;95357.63;4932918;29;20451;-62
2022/05/10 22:28:31;;;;;;;10.97;6.27;;;;;;;21.23;41.90;95402.41;4933728;29;20444;-61
2022/05/10 22:30:58;;;;;;;7.77;5.80;;;;;;;20.90;42.54;95408.09;4933235;29;20445;-61
2022/05/10 22:33:25;;;;;;;26.37;18.90;;;;;;;21.08;41.99;95408.97;4933765;29;20543;-65
2022/05/10 22:35:53;;;;;;;11.20;6.77;;;;;;;20.91;41.82;95414.97;4932306;29;20487;-64
2022/05/10 22:38:20;;;;;;;7.57;6.13;;;;;;;21.00;41.95;95415.81;4933387;29;20437;-59
2022/05/10 22:40:48;;;;;;;10.33;6.77;;;;;;;21.12;40.93;95408.03;4932974;29;20455;-64
2022/05/10 22:43:17;;;;;;;7.13;4.93;;;;;;;21.04;40.55;95414.13;4933628;29;20440;-63
2022/05/10 22:45:44;;;;;;;6.17;5.50;;;;;;;20.83;41.04;95412.28;4933602;29;20531;-63
2022/05/10 22:48:11;;;;;;;11.87;5.97;;;;;;;20.79;41.01;95401.47;4936133;29;20456;-63
2022/05/10 22:50:38;;;;;;;6.33;4.67;;;;;;;19.69;42.81;95414.78;4934245;29;20444;-61
2022/05/10 22:53:11;;;;;;;11.53;6.07;;;;;;;20.19;42.63;95405.66;4933260;29;20507;-62
2022/05/10 22:55:38;;;;;;;9.17;5.27;;;;;;;20.18;41.56;95412.06;4932774;29;20467;-63
2022/05/10 22:58:04;;;;;;;6.77;5.13;;;;;;;20.53;41.42;95399.75;4932715;29;20516;-62
2022/05/10 23:00:31;;;;;;;12.50;5.87;;;;;;;20.56;41.47;95412.47;4931878;29;20455;-63
2022/05/10 23:02:58;;;;;;;9.50;5.40;;;;;;;20.44;41.50;95405.03;4931833;29;20835;-62
2022/05/10 23:05:25;;;;;;;8.50;5.57;;;;;;;20.13;42.07;95406.81;4932499;29;20448;-64
2022/05/10 23:07:52;;;;;;;6.27;5.53;;;;;;;20.33;41.67;95409.03;4932968;29;20445;-63
2022/05/10 23:10:19;;;;;;;6.47;5.57;;;;;;;20.37;41.87;95417.19;4932612;29;20930;-62
2022/05/10 23:12:46;;;;;;;6.90;5.10;;;;;;;20.37;41.73;95419.84;4932650;29;20479;-63
2022/05/10 23:15:13;;;;;;;9.37;6.30;;;;;;;20.41;42.67;95432.25;4931929;29;20483;-61
2022/05/10 23:17:40;;;;;;;9.33;7.40;;;;;;;20.17;42.21;95426.44;4932787;29;20452;-64
2022/05/10 23:20:08;;;;;;;13.37;8.93;;;;;;;20.48;41.31;95424.63;4932485;29;20966;-60
2022/05/10 23:22:37;;;;;;;11.90;6.20;;;;;;;20.43;41.87;95424.75;4932557;29;20998;-65
2022/05/10 23:25:06;;;;;;;9.10;5.97;;;;;;;20.42;41.46;95428.50;4931774;29;20436;-61
2022/05/10 23:27:35;;;;;;;13.23;5.90;;;;;;;20.51;41.34;95405.38;4932784;29;20445;-61
2022/05/10 23:30:02;;;;;;;10.20;6.00;;;;;;;20.44;41.51;95415.66;4931800;29;20447;-63
2022/05/10 23:32:30;;;;;;;13.53;6.20;;;;;;;20.05;42.62;95413.66;4932490;29;20522;-61
2022/05/10 23:34:56;;;;;;;9.53;6.10;;;;;;;20.23;42.37;95413.81;4932678;29;20558;-64
2022/05/10 23:37:24;;;;;;;10.83;6.23;;;;;;;20.27;41.66;95404.13;4932173;29;20444;-65
2022/05/10 23:39:51;;;;;;;12.67;5.80;;;;;;;20.26;41.97;95419.31;4932466;29;20453;-62
2022/05/10 23:42:17;;;;;;;10.47;5.60;;;;;;;20.06;42.85;95422.44;4930078;29;20460;-63
2022/05/10 23:44:44;;;;;;;8.60;5.97;;;;;;;19.89;43.09;95423.06;4932243;29;20984;-63
2022/05/10 23:47:11;;;;;;;8.33;5.70;;;;;;;20.03;42.79;95420.38;4932173;29;20448;-62
2022/05/10 23:49:38;;;;;;;14.13;5.90;;;;;;;19.76;42.38;95404.50;4932199;29;20982;-61
2022/05/10 23:52:05;;;;;;;8.63;5.23;;;;;;;18.27;45.68;95420.34;4931806;29;20464;-63
2022/05/10 23:54:32;;;;;;;9.57;5.50;;;;;;;19.23;43.20;95416.78;4934903;29;20452;-62
2022/05/10 23:56:59;;;;;;;8.37;5.90;;;;;;;19.62;42.79;95414.38;4935982;29;21056;-64
2022/05/10 23:59:26;;;;;;;12.20;5.83;;;;;;;19.70;42.26;95424.31;4929195;29;20459;-64
